ポートルイス の空港の天気 - METARとTAF

サー・シウサガル・ラングラーム国際空港 ( FIMP / MRU ) - モーリシャス ポートルイス
飛行場実況気象(Metar)
観測時間01/19 15:00 MUT (01/19 11:00 UTC)
風向・風速東北東 7m/s
視程10km以上
天気現象
少しの雲 雲底高度 550m
全天の8割程度の雲 雲底高度 7620m
気温31℃
湿度66%
気圧1013hPa
METARFIMP 191100Z 06014KT 9999 FEW018 BKN250 31/24 Q1013
過去の天気等 Google飛行場航空写真 Wunderground天気予報

過去48時間のMETAR

飛行場予報(TAF)
発表時間: 1/19 09:00 MUT (1/19 05:00 UTC)
予報対象時間: 19日10時 MUT ~ 20日16時 MUT
風向・風速東北東 4m/s
視程10km以上
全天の4割程度の雲 雲底高度 550m
19日16時 MUT ~ 19日22時 MUT に一時的に
視程5000m
天気現象弱いしゅう雨 雷雨
少しの雲 雲底高度 240m
少しの積乱雲 雲底高度 370m
全天の8割程度の雲 雲底高度 460m
TAF FIMP 190500Z 1906/2012 06008KT 9999 SCT018
TEMPO 1912/1918 5000 -SHRA TSRA FEW008 FEW012CB BKN015